Terminal Aerodrome Forecast
Issued by NWS

Home | Current Version | Previous Version | Text Only | Print | Product List | Glossary On
Versions: 1 2 3 4 5 6 7 8 9 10 11 12 13 14 15 16 17 18 19 20 21 22 23 24 25
000
FTUS45 KGJT 312340
TAFVEL
TAF
KVEL 312340Z 0100/0124 01008KT P6SM FEW120 BKN200
     FM010200 29004KT P6SM FEW110 BKN200
     FM010600 VRB04KT P6SM SCT200
     FM012000 23007KT P6SM SCT120 BKN200=

USA.gov is the U.S. government's official web portal to all federal, state and local government web resources and services.